Latest Weather Observations for Leonora Airport

IDW60801

Issued at 6:02 pm WST Thursday 28 May 2015 (issued every 30 minutes, with the page automatically refreshed every 10 minutes)

About weather observations | Map of weather stations | Latest weather observations for WA | Other Formats
Station Details ID: 012241 Name: LEONORA AERO Lat: -28.88 Lon: 121.32 Height: 370.0 m
Data from the previous 72 hours. | See also: Recent months for locations in Western Australia
Date/Time
WST
Temp
°C
App
Temp
°C
Dew
Point
Rel
Hum
%
Delta-T
°C
Wind Press
QNH
hPa
Press
MSL
hPa
Rain
since 9 am
mm
Dir
 
Spd
km/h
Gust
km/h
Spd
kts
Gust
kts
28/06:00pm 18.1 15.0 7.2 49 5.6 SE 13 17 7 9 1020.3 1019.6 0.0
28/05:30pm 18.7 15.6 7.2 47 5.9 SE 13 17 7 9 1020.0 1019.2 0.0
28/05:00pm 19.4 15.6 7.5 46 6.2 SE 17 22 9 12 1019.7 1018.9 0.0
28/04:30pm 20.0 15.8 7.4 44 6.6 SE 19 26 10 14 1019.5 1018.7 0.0
28/04:00pm 20.6 16.8 7.6 43 6.8 SE 17 24 9 13 1019.3 1018.5 0.0
28/03:30pm 20.6 16.4 7.6 43 6.8 SE 19 28 10 15 1019.1 1018.3 0.0
28/03:00pm 21.1 17.0 7.7 42 7.0 SE 19 24 10 13 1019.0 1018.2 0.0
28/02:30pm 20.8 17.3 7.4 42 7.0 SE 15 24 8 13 1019.1 1018.3 0.0
28/02:00pm 21.3 17.6 7.9 42 7.1 ESE 17 24 9 13 1019.0 1018.2 0.0
28/01:30pm 20.4 17.0 7.7 44 6.7 ESE 15 24 8 13 1019.1 1018.3 0.0
28/01:00pm 21.0 17.5 8.6 45 6.6 ESE 17 28 9 15 1019.3 1018.5 0.0
28/12:30pm 20.0 16.3 8.0 46 6.3 ESE 17 24 9 13 1019.5 1018.7 0.0
28/12:00pm 18.6 14.8 7.7 49 5.6 SE 17 26 9 14 1019.9 1019.1 0.0
28/11:30am 18.4 15.1 8.1 51 5.4 ESE 15 20 8 11 1020.4 1019.7 0.0
28/11:00am 17.4 13.6 7.5 52 5.1 SE 17 20 9 11 1020.6 1019.9 0.0
28/10:30am 16.7 13.3 7.6 55 4.7 SE 15 20 8 11 1020.8 1020.1 0.0
28/10:00am 15.9 12.4 7.4 57 4.3 ESE 15 20 8 11 1021.2 1020.4 0.0
28/09:30am 14.7 10.7 6.8 59 3.9 ESE 17 22 9 12 1021.2 1020.4 0.0
28/09:00am 14.0 10.4 6.6 61 3.6 SE 15 20 8 11 1021.2 1020.4 0.0
28/08:30am 12.8 8.1 6.2 64 3.2 SE 20 28 11 15 1020.7 1020.0 0.0
28/08:00am 11.7 7.5 5.6 66 2.9 SE 17 24 9 13 1021.0 1020.3 0.0
28/07:30am 10.6 7.6 5.8 72 2.3 SSE 11 17 6 9 1020.8 1020.1 0.0
28/07:00am 10.0 7.7 5.6 74 2.0 SE 7 9 4 5 1020.6 1019.9 0.0
28/06:30am 10.3 8.0 5.7 73 2.2 ESE 7 11 4 6 1020.4 1019.7 0.0
28/06:00am 11.1 7.7 5.8 70 2.5 SSE 13 17 7 9 1020.0 1019.2 0.0
28/05:30am 11.4 8.4 5.9 69 2.6 SSE 11 15 6 8 1020.0 1019.2 0.0
28/05:00am 12.0 8.3 6.5 69 2.7 SSE 15 24 8 13 1019.7 1018.9 0.0
28/04:30am 12.2 8.8 7.7 74 2.2 SSE 15 20 8 11 1019.3 1018.5 0.0
28/04:00am 12.8 10.4 10.2 84 1.4 SE 13 19 7 10 1019.3 1018.5 0.0
28/03:30am 10.8 10.1 8.6 86 1.1 S 2 7 1 4 1019.2 1018.4 0.0
28/03:00am 12.1 11.1 10.2 88 1.0 ENE 6 7 3 4 1019.4 1018.6 0.0
28/02:30am 11.5 11.5 9.9 90 0.8 CALM 0 0 0 0 1019.5 1018.7 0.0
28/02:00am 11.4 10.6 9.7 89 0.9 SE 4 9 2 5 1019.4 1018.6 0.0
28/01:30am 12.0 10.4 10.2 89 0.9 SE 9 15 5 8 1019.5 1018.7 0.0
28/01:00am 12.3 10.8 10.7 90 0.8 SE 9 13 5 7 1019.4 1018.6 0.0
28/12:30am 11.9 10.2 9.8 87 1.1 S 9 11 5 6 1019.2 1018.4 0.0
28/12:00am 12.5 12.7 10.4 87 1.1 CALM 0 0 0 0 1019.1 1018.3 0.0
 
Date/Time
WST
Temp
°C
App
Temp
°C
Dew
Point
Rel
Hum
%
Delta-T
°C
Wind Press
QNH
hPa
Press
MSL
hPa
Rain
since 9 am
mm
Dir
 
Spd
km/h
Gust
km/h
Spd
kts
Gust
kts
27/11:30pm 12.4 12.5 10.0 85 1.3 CALM 0 0 0 0 1019.2 1018.4 0.0
27/11:00pm 12.5 12.6 10.2 86 1.2 CALM 0 0 0 0 1019.2 1018.4 0.0
27/10:33pm 13.5 13.9 11.2 86 1.2 CALM 0 0 0 0 1019.3 1018.5 0.0
27/10:30pm 13.3 13.6 11.0 86 1.2 CALM 0 0 0 0 1019.3 1018.5 0.0
27/10:19pm 13.8 14.2 11.3 85 1.4 CALM 0 0 0 0 1019.4 1018.6 0.0
27/10:00pm 14.1 14.5 11.4 84 1.5 CALM 0 0 0 0 1019.7 1018.9 0.0
27/09:30pm 14.6 13.9 11.9 84 1.5 NW 7 9 4 5 1019.7 1018.9 0.0
27/09:00pm 15.0 14.3 12.1 83 1.6 N 7 9 4 5 1019.6 1018.8 0.0
27/08:30pm 15.5 14.4 12.1 80 1.9 NNE 9 13 5 7 1019.5 1018.7 0.0
27/08:00pm 15.9 14.8 12.1 78 2.1 N 9 11 5 6 1019.4 1018.6 0.0
27/07:30pm 16.4 14.9 12.0 75 2.4 NNE 11 15 6 8 1019.3 1018.5 0.0
27/07:00pm 16.9 15.3 11.4 70 3.0 N 11 13 6 7 1019.1 1018.3 0.0
27/06:30pm 17.3 15.9 10.9 66 3.5 N 9 11 5 6 1018.8 1018.0 0.0
27/06:00pm 18.2 16.5 11.3 64 3.8 N 11 13 6 7 1018.5 1017.7 0.0
27/05:30pm 19.0 16.2 11.3 61 4.3 N 17 20 9 11 1018.7 1017.9 0.0
27/05:00pm 19.6 16.0 10.6 56 5.0 NNE 20 28 11 15 1018.6 1017.8 0.0
27/04:30pm 20.1 16.7 10.5 54 5.3 NNE 19 26 10 14 1018.1 1017.4 0.0
27/04:00pm 21.4 18.7 9.0 45 6.7 NNE 13 20 7 11 1017.9 1017.2 0.0
27/03:30pm 22.0 20.1 8.9 43 7.1 NNE 9 15 5 8 1017.9 1017.2 0.0
27/03:00pm 21.7 20.1 7.9 41 7.3 ENE 6 15 3 8 1018.0 1017.3 0.0
27/02:30pm 22.5 21.2 7.5 38 7.9 ENE 4 11 2 6 1018.1 1017.4 0.0
27/02:00pm 21.5 18.7 7.0 39 7.5 ENE 11 17 6 9 1018.3 1017.5 0.0
27/01:30pm 22.4 20.5 7.4 38 7.9 NNW 7 11 4 6 1018.3 1017.5 0.0
27/01:00pm 21.9 19.6 7.3 39 7.7 E 9 20 5 11 1018.7 1017.9 0.0
27/12:30pm 21.1 19.2 5.1 35 8.0 ESE 4 9 2 5 1019.3 1018.5 0.0
27/12:00pm 21.1 19.8 7.7 42 7.0 E 4 9 2 5 1019.9 1019.1 0.0
27/11:30am 20.7 19.4 9.3 48 6.2 NNE 6 11 3 6 1020.4 1019.7 0.0
27/11:00am 20.1 19.5 10.5 54 5.3 ENE 4 9 2 5 1020.9 1020.2 0.0
27/10:30am 19.1 18.9 10.6 58 4.7 S 2 7 1 4 1021.5 1020.7 0.0
27/10:00am 18.5 19.0 11.6 64 3.8 CALM 0 6 0 3 1021.8 1021.0 0.0
27/09:30am 16.5 16.9 11.4 72 2.8 CALM 0 0 0 0 1021.9 1021.1 0.0
27/09:00am 14.4 14.8 11.4 82 1.6 CALM 0 0 0 0 1021.9 1021.1 0.0
27/08:43am 12.6 12.9 11.0 90 0.9 CALM 0 0 0 0 1021.9 1021.1 0.0
27/08:40am 12.5 13.0 11.6 94 0.5 CALM 0 0 0 0 1021.9 1021.1 0.0
27/08:30am 11.4 11.7 10.8 96 0.3 CALM 0 0 0 0 1021.9 1021.1 0.0
27/08:00am 9.8 9.7 9.3 97 0.3 CALM 0 0 0 0 1022.0 1021.2 0.0
27/07:30am 8.7 8.2 7.9 95 0.4 CALM 0 0 0 0 1021.8 1021.0 0.0
27/07:00am 8.9 8.4 8.0 94 0.4 CALM 0 0 0 0 1021.5 1020.7 0.0
27/06:39am 9.1 8.6 8.0 93 0.5 CALM 0 0 0 0 1021.3 1020.5 0.0
27/06:30am 9.5 9.2 8.6 94 0.4 CALM 0 0 0 0 1021.2 1020.4 0.0
27/06:20am 9.8 9.6 8.9 94 0.5 CALM 0 0 0 0 1021.2 1020.4 0.0
27/06:00am 8.5 7.8 6.8 89 0.8 CALM 0 0 0 0 1021.0 1020.3 0.0
27/05:30am 8.9 8.3 7.2 89 0.8 CALM 0 0 0 0 1020.8 1020.1 0.0
27/05:00am 9.5 8.9 7.4 87 1.0 CALM 0 0 0 0 1020.8 1020.1 0.0
27/04:39am 10.4 10.1 8.5 88 0.9 CALM 0 0 0 0 1020.9 1020.2 0.0
27/04:30am 10.6 10.3 8.5 87 1.1 CALM 0 0 0 0 1021.0 1020.3 0.0
27/04:00am 10.8 10.6 8.9 88 1.0 CALM 0 0 0 0 1020.9 1020.2 0.0
27/03:30am 9.6 9.1 7.9 89 0.8 CALM 0 0 0 0 1021.0 1020.3 0.0
27/03:19am 9.1 8.5 7.4 89 0.8 CALM 0 0 0 0 1021.2 1020.4 0.0
27/03:00am 8.8 7.0 7.3 90 0.7 S 6 9 3 5 1021.0 1020.3 0.0
27/02:30am 9.0 7.9 7.0 87 1.0 NW 2 7 1 4 1020.9 1020.2 0.0
27/02:00am 9.5 8.9 7.4 87 1.0 CALM 0 0 0 0 1020.9 1020.2 0.0
27/01:30am 10.7 10.4 8.6 87 1.1 CALM 0 0 0 0 1021.0 1020.3 0.0
27/01:00am 11.4 11.1 8.8 84 1.3 CALM 0 6 0 3 1021.4 1020.6 0.0
27/12:30am 11.8 11.1 8.5 80 1.7 W 2 9 1 5 1021.5 1020.7 0.0
27/12:00am 11.9 10.6 9.3 84 1.3 N 6 11 3 6 1021.6 1020.8 0.0
 
Date/Time
WST
Temp
°C
App
Temp
°C
Dew
Point
Rel
Hum
%
Delta-T
°C
Wind Press
QNH
hPa
Press
MSL
hPa
Rain
since 9 am
mm
Dir
 
Spd
km/h
Gust
km/h
Spd
kts
Gust
kts
26/11:30pm 12.2 10.8 9.0 81 1.6 NNE 6 9 3 5 1021.8 1021.0 0.0
26/11:00pm 12.3 10.8 9.0 80 1.7 NE 7 9 4 5 1022.1 1021.3 0.0
26/10:30pm 13.0 11.4 10.2 83 1.5 NE 9 13 5 7 1022.4 1021.7 0.0
26/10:00pm 11.9 11.4 7.8 76 2.0 CALM 0 0 0 0 1022.5 1021.8 0.0
26/09:30pm 13.6 12.5 9.8 78 2.0 NE 6 9 3 5 1022.5 1021.8 0.0
26/09:00pm 13.8 13.7 9.3 74 2.3 CALM 0 0 0 0 1022.5 1021.8 0.0
26/08:30pm 14.6 13.1 9.0 69 2.9 NNE 7 9 4 5 1022.5 1021.8 0.0
26/08:00pm 14.9 13.6 9.1 68 3.0 NNE 6 7 3 4 1022.4 1021.7 0.0
26/07:30pm 15.4 15.2 8.9 65 3.4 CALM 0 0 0 0 1022.2 1021.4 0.0
26/07:00pm 16.7 15.3 9.4 62 3.9 NNE 7 11 4 6 1022.1 1021.3 0.0
26/06:30pm 17.5 15.8 9.9 61 4.1 NNE 9 11 5 6 1022.0 1021.2 0.0
26/06:00pm 17.5 17.2 8.6 56 4.7 CALM 0 0 0 0 1021.8 1021.0 0.0
26/05:30pm 18.9 18.6 8.8 52 5.4 CALM 0 0 0 0 1021.4 1020.6 0.0
26/05:00pm 19.9 19.7 9.2 50 5.7 CALM 0 0 0 0 1021.3 1020.5 0.0
26/04:30pm 20.8 20.7 9.4 48 6.2 CALM 0 0 0 0 1021.3 1020.5 0.0
26/04:00pm 21.3 20.9 9.9 48 6.2 N 2 7 1 4 1021.2 1020.4 0.0
26/03:30pm 21.2 21.1 10.7 51 5.8 NW 2 7 1 4 1021.2 1020.4 0.0
26/03:00pm 20.6 19.8 11.0 54 5.3 N 6 9 3 5 1021.2 1020.4 0.0
26/02:30pm 20.6 19.7 11.2 55 5.3 N 7 11 4 6 1021.4 1020.6 0.0
26/02:00pm 19.5 18.6 11.5 60 4.5 N 7 11 4 6 1021.5 1020.7 0.0
26/01:30pm 19.3 18.5 11.8 62 4.2 N 7 13 4 7 1021.6 1020.8 0.0
26/01:00pm 19.0 17.7 12.5 66 3.7 N 11 17 6 9 1021.9 1021.1 0.0
26/12:30pm 18.3 17.4 12.5 69 3.3 NNW 9 13 5 7 1022.4 1021.7 0.0
26/12:00pm 17.3 16.7 12.2 72 2.9 NNW 7 15 4 8 1022.7 1022.0 0.0
26/11:30am 16.1 15.7 12.3 78 2.1 NW 6 9 3 5 1023.2 1022.5 0.0
26/11:00am 15.1 14.1 12.2 83 1.6 WNW 9 15 5 8 1023.7 1023.0 0.0
26/10:30am 14.2 13.5 11.9 86 1.3 NNW 7 13 4 7 1024.1 1023.3 0.0
26/10:00am 13.5 12.6 11.4 87 1.1 NW 7 11 4 6 1024.1 1023.3 0.0
26/09:30am 12.5 12.5 11.2 92 0.7 NNW 2 7 1 4 1024.1 1023.3 0.0
26/09:23am 12.2 12.5 10.9 92 0.7 CALM 0 7 0 4 1024.0 1023.2 0.0
26/09:00am 12.0 12.0 11.1 94 0.5 WSW 2 7 1 4 1024.0 1023.2 0.0
26/08:44am 11.7 12.0 10.9 95 0.4 CALM 0 0 0 0 1023.8 1023.1 0.0
26/08:30am 11.5 11.8 10.9 96 0.3 CALM 0 0 0 0 1023.8 1023.1 0.0
26/08:21am 11.4 11.7 10.9 97 0.3 CALM 0 0 0 0 1023.8 1023.1 0.0
26/08:00am 11.1 11.3 10.6 97 0.3 CALM 0 0 0 0 1023.7 1023.0 0.0
26/07:30am 10.4 10.4 9.9 97 0.3 CALM 0 0 0 0 1023.6 1022.9 0.0
26/07:00am 10.4 10.4 9.8 96 0.3 CALM 0 0 0 0 1023.1 1022.4 0.0
26/06:35am 9.6 9.4 9.0 96 0.3 CALM 0 0 0 0 1022.9 1022.2 0.0
26/06:30am 9.5 9.3 8.9 96 0.3 CALM 0 0 0 0 1022.9 1022.2 0.0
26/06:00am 8.8 8.3 7.9 94 0.4 CALM 0 0 0 0 1022.5 1021.8 0.0
26/05:37am 8.3 7.6 7.1 92 0.6 CALM 0 0 0 0 1022.3 1021.5 0.0
26/05:30am 8.2 7.5 6.8 91 0.7 CALM 0 0 0 0 1022.2 1021.4 0.0
26/05:14am 8.1 7.3 6.6 90 0.7 CALM 0 0 0 0 1022.2 1021.4 0.0
26/05:00am 8.3 7.6 6.9 91 0.7 CALM 0 0 0 0 1022.1 1021.3 0.0
26/04:30am 9.1 8.6 7.9 92 0.6 CALM 0 0 0 0 1021.9 1021.1 0.0
26/04:00am 9.8 9.5 8.7 93 0.5 CALM 0 0 0 0 1021.7 1020.9 0.0
26/03:30am 9.4 9.0 8.2 92 0.6 CALM 0 0 0 0 1021.8 1021.0 0.0
26/03:00am 10.0 9.8 8.9 93 0.6 CALM 0 0 0 0 1021.7 1020.9 0.0
26/02:30am 10.4 10.3 9.3 93 0.6 CALM 0 0 0 0 1021.7 1020.9 0.0
26/02:00am 10.3 8.9 8.9 91 0.7 SE 6 7 3 4 1021.8 1021.0 0.0
26/01:30am 11.1 10.7 9.7 91 0.7 NNE 2 7 1 4 1021.8 1021.0 0.0
26/01:00am 11.4 11.4 9.7 89 0.9 CALM 0 0 0 0 1022.0 1021.2 0.0
26/12:30am 12.4 11.0 11.0 91 0.7 NNE 9 11 5 6 1022.1 1021.3 0.0
26/12:00am 12.4 11.4 11.0 91 0.7 N 7 13 4 7 1022.3 1021.5 0.0
 
Date/Time
WST
Temp
°C
App
Temp
°C
Dew
Point
Rel
Hum
%
Delta-T
°C
Wind Press
QNH
hPa
Press
MSL
hPa
Rain
since 9 am
mm
Dir
 
Spd
km/h
Gust
km/h
Spd
kts
Gust
kts
25/11:30pm 12.1 11.2 10.5 90 0.8 NNE 6 9 3 5 1022.5 1021.8 0.0
25/11:00pm 12.7 11.7 10.9 89 1.0 NE 7 11 4 6 1022.5 1021.8 0.0
25/10:30pm 12.9 11.5 11.0 88 1.0 ENE 9 11 5 6 1022.5 1021.8 0.0
25/10:00pm 13.1 12.1 11.0 87 1.1 ENE 7 9 4 5 1022.5 1021.8 0.0
25/09:30pm 12.2 12.2 9.8 85 1.2 CALM 0 0 0 0 1022.6 1021.9 0.0
25/09:00pm 13.2 13.4 10.6 84 1.4 CALM 0 0 0 0 1022.5 1021.8 0.0
25/08:30pm 14.4 13.7 11.4 82 1.6 NNE 6 7 3 4 1022.6 1021.9 0.0
25/08:00pm 14.8 14.0 11.6 81 1.7 N 7 11 4 6 1022.3 1021.5 0.0
25/07:30pm 15.2 14.0 11.6 79 2.0 NNE 9 15 5 8 1022.3 1021.5 0.0
25/07:00pm 15.6 12.9 11.6 77 2.2 NNE 17 22 9 12 1021.9 1021.1 0.0
25/06:30pm 16.1 13.4 11.7 75 2.4 NNE 17 22 9 12 1021.5 1020.7 0.0

Other Formats:

Comma delimited format used in spreadsheet applications
http://www.bom.gov.au/fwo/IDW60801/IDW60801.94450.axf

JavaScript Object Notation format (JSON) in row-major order
http://www.bom.gov.au/fwo/IDW60801/IDW60801.94450.json